Time;durP1;ratioP1;P1;durP2;ratioP2;P2;SDS_P1;SDS_P2;PMS_P1;PMS_P2;Temp;Humidity;BMP_temperature;BMP_pressure;BME280_temperature;BME280_humidity;BME280_pressure;Samples;Min_cycle;Max_cycle;Signal;HPM_P1;HPM_P2
2022/05/01 00:00:16;;;;;;;11.75;7.60;;;11.70;88.30;;;;;;5082608;28;20345;-71
2022/05/01 00:02:42;;;;;;;12.85;7.85;;;11.60;88.60;;;;;;5084798;28;20024;-71
2022/05/01 00:05:08;;;;;;;12.50;7.72;;;11.60;88.70;;;;;;5083105;28;20028;-69
2022/05/01 00:07:34;;;;;;;15.00;8.32;;;11.60;88.80;;;;;;5084249;28;20024;-70
2022/05/01 00:09:59;;;;;;;14.65;8.10;;;11.60;89.00;;;;;;5066315;28;20036;-72
2022/05/01 00:12:26;;;;;;;12.73;8.35;;;11.60;89.40;;;;;;5066335;28;20048;-69
2022/05/01 00:14:51;;;;;;;14.57;7.97;;;11.60;89.60;;;;;;5082976;28;20016;-70
2022/05/01 00:17:17;;;;;;;14.05;8.18;;;11.60;89.40;;;;;;5066183;28;20311;-71
2022/05/01 00:19:43;;;;;;;13.50;7.88;;;11.70;89.50;;;;;;5083349;28;20028;-70
2022/05/01 00:22:08;;;;;;;16.33;8.88;;;11.70;89.70;;;;;;5083203;28;20028;-70
2022/05/01 00:24:34;;;;;;;12.50;7.60;;;11.60;90.00;;;;;;5065895;28;20021;-70
2022/05/01 00:27:00;;;;;;;12.55;8.68;;;11.60;90.20;;;;;;5066620;28;20021;-70
2022/05/01 00:29:26;;;;;;;16.48;8.32;;;11.60;90.40;;;;;;5083042;28;20070;-69
2022/05/01 00:31:52;;;;;;;15.07;8.82;;;11.60;90.50;;;;;;5082926;28;20254;-68
2022/05/01 00:37:04;;;;;;;14.07;8.30;;;11.50;90.70;;;;;;5069377;28;20035;-70
2022/05/01 00:39:29;;;;;;;17.23;9.00;;;11.60;90.80;;;;;;5083167;28;20091;-69
2022/05/01 00:41:55;;;;;;;14.18;8.93;;;11.60;90.80;;;;;;5084056;28;20275;-69
2022/05/01 00:44:21;;;;;;;14.52;9.55;;;11.60;91.00;;;;;;5084216;28;20019;-69
2022/05/01 00:46:50;;;;;;;20.75;9.80;;;11.60;91.20;;;;;;5082598;28;20073;-69
2022/05/01 00:49:20;;;;;;;17.05;9.40;;;11.50;91.30;;;;;;5083320;28;20112;-70
2022/05/01 00:51:49;;;;;;;15.50;9.90;;;11.50;91.30;;;;;;5082824;28;20130;-70
2022/05/01 00:54:17;;;;;;;14.25;9.05;;;11.50;91.50;;;;;;5065861;28;20024;-70
2022/05/01 00:56:45;;;;;;;18.35;9.32;;;11.50;91.70;;;;;;5082691;28;20033;-71
2022/05/01 00:59:12;;;;;;;17.23;9.48;;;11.50;91.70;;;;;;5084219;28;20091;-70
2022/05/01 01:01:42;;;;;;;18.80;9.27;;;11.60;91.80;;;;;;5081361;28;20028;-71
2022/05/01 01:04:09;;;;;;;17.02;9.52;;;11.60;91.80;;;;;;5066673;28;20096;-71
2022/05/01 01:06:36;;;;;;;17.58;9.93;;;11.50;92.00;;;;;;5084802;28;20059;-71
2022/05/01 01:09:03;;;;;;;15.82;10.00;;;11.50;92.00;;;;;;5087773;28;20071;-70
2022/05/01 01:11:28;;;;;;;19.98;10.15;;;11.60;92.20;;;;;;5087994;28;20017;-70
2022/05/01 01:13:55;;;;;;;19.23;10.20;;;11.50;92.20;;;;;;5086490;28;20044;-70
2022/05/01 01:16:21;;;;;;;19.10;10.30;;;11.50;92.30;;;;;;5086555;28;20016;-70
2022/05/01 01:18:47;;;;;;;16.65;9.93;;;11.50;92.30;;;;;;5087437;28;20063;-70
2022/05/01 01:21:13;;;;;;;19.85;9.88;;;11.50;92.40;;;;;;5069781;28;20028;-69
2022/05/01 01:23:40;;;;;;;16.98;10.02;;;11.60;92.30;;;;;;5085695;28;20021;-70
2022/05/01 01:26:08;;;;;;;18.17;10.57;;;11.60;92.30;;;;;;5069279;28;20024;-70
2022/05/01 01:28:36;;;;;;;16.38;10.43;;;11.60;92.30;;;;;;5069383;28;20062;-70
2022/05/01 01:33:52;;;;;;;13.98;9.32;;;11.50;92.30;;;;;;5086165;28;20013;-71
2022/05/01 01:36:21;;;;;;;15.57;9.65;;;11.50;92.30;;;;;;5085967;28;20036;-69
2022/05/01 01:38:47;;;;;;;16.88;9.93;;;11.50;92.30;;;;;;5069199;28;20031;-69
2022/05/01 01:41:18;;;;;;;18.30;9.55;;;11.50;92.30;;;;;;5085608;28;20032;-70
2022/05/01 01:43:45;;;;;;;16.42;9.35;;;11.50;92.20;;;;;;5085846;28;20016;-69
2022/05/01 01:46:11;;;;;;;14.95;9.70;;;11.50;92.10;;;;;;5085655;28;20074;-69
2022/05/01 01:48:37;;;;;;;18.05;9.73;;;11.50;92.00;;;;;;5086820;28;20025;-70
2022/05/01 01:51:04;;;;;;;12.98;9.18;;;11.40;91.90;;;;;;5068917;28;20317;-69
2022/05/01 01:53:31;;;;;;;17.17;8.77;;;11.40;91.60;;;;;;5085058;28;20028;-69
2022/05/01 01:55:58;;;;;;;14.30;8.52;;;11.40;91.40;;;;;;5085232;28;20307;-70
2022/05/01 01:58:25;;;;;;;17.15;8.65;;;11.40;91.40;;;;;;5085457;28;20017;-71
2022/05/01 02:00:51;;;;;;;15.18;8.73;;;11.40;91.20;;;;;;5085753;28;20024;-70
2022/05/01 02:03:17;;;;;;;14.55;8.55;;;11.40;91.30;;;;;;5083553;28;20265;-70
2022/05/01 02:05:44;;;;;;;13.35;8.13;;;11.40;91.10;;;;;;5085570;28;20054;-70
2022/05/01 02:08:11;;;;;;;13.73;9.20;;;11.40;91.20;;;;;;5068657;28;20048;-70
2022/05/01 02:10:37;;;;;;;13.73;8.63;;;11.40;91.10;;;;;;5085521;28;20024;-70
2022/05/01 02:13:03;;;;;;;13.85;8.38;;;11.30;90.90;;;;;;5068046;28;20278;-70
2022/05/01 02:15:31;;;;;;;13.48;8.38;;;11.30;91.00;;;;;;5086676;28;20051;-70
2022/05/01 02:17:58;;;;;;;15.18;8.82;;;11.30;91.10;;;;;;5086294;28;20131;-69
2022/05/01 02:20:24;;;;;;;16.58;8.07;;;11.30;91.20;;;;;;5068898;28;20016;-71
2022/05/01 02:22:50;;;;;;;14.52;8.13;;;11.30;91.30;;;;;;5086360;28;20066;-70
2022/05/01 02:25:16;;;;;;;16.00;8.88;;;11.30;91.10;;;;;;5068384;28;20066;-70
2022/05/01 02:27:42;;;;;;;18.70;8.50;;;11.30;91.00;;;;;;5085283;28;20051;-70
2022/05/01 02:30:08;;;;;;;13.57;8.98;;;11.30;90.80;;;;;;5068752;28;20044;-71
2022/05/01 02:32:38;;;;;;;14.30;8.85;;;11.40;90.60;;;;;;5085230;28;20024;-70
2022/05/01 02:35:06;;;;;;;15.98;9.15;;;11.40;90.70;;;;;;5068071;28;20020;-69
2022/05/01 02:37:31;;;;;;;14.90;9.07;;;11.30;90.90;;;;;;5067983;28;20027;-70
2022/05/01 02:39:57;;;;;;;15.68;9.38;;;11.40;91.00;;;;;;5085570;28;20051;-70
2022/05/01 02:42:23;;;;;;;14.00;10.18;;;11.40;91.10;;;;;;5068514;28;20032;-69
2022/05/01 02:44:49;;;;;;;17.25;10.77;;;11.30;91.50;;;;;;5068949;28;20016;-69
2022/05/01 02:47:14;;;;;;;15.02;9.45;;;11.30;91.50;;;;;;5086160;28;20028;-71
2022/05/01 02:49:42;;;;;;;19.30;9.85;;;11.30;91.70;;;;;;5085684;28;20255;-70
2022/05/01 02:52:08;;;;;;;19.70;10.52;;;11.30;91.60;;;;;;5086015;28;20036;-69
2022/05/01 02:54:34;;;;;;;16.13;11.10;;;11.30;92.00;;;;;;5087036;28;20083;-69
2022/05/01 02:57:00;;;;;;;19.30;10.93;;;11.30;91.90;;;;;;5070369;28;20082;-70
2022/05/01 02:59:26;;;;;;;17.05;11.32;;;11.40;92.20;;;;;;5088084;28;20041;-69
2022/05/01 03:01:52;;;;;;;18.80;11.63;;;11.40;92.30;;;;;;5090312;28;20047;-69
2022/05/01 03:04:18;;;;;;;20.38;12.32;;;11.40;92.30;;;;;;5073362;28;20200;-69
2022/05/01 03:06:43;;;;;;;23.33;12.60;;;11.40;92.30;;;;;;5096247;28;20016;-70
2022/05/01 03:09:09;;;;;;;21.38;12.90;;;11.40;92.30;;;;;;5079278;28;20081;-69
2022/05/01 03:11:36;;;;;;;24.10;13.35;;;11.40;92.50;;;;;;5063027;28;20116;-70
2022/05/01 03:14:02;;;;;;;22.58;12.60;;;11.40;92.80;;;;;;5096103;28;20023;-71
2022/05/01 03:16:29;;;;;;;20.08;13.35;;;11.40;93.10;;;;;;5080181;28;20024;-69
2022/05/01 03:24:26;;;;;;;23.05;13.32;;;11.40;93.60;;;;;;5094340;28;20023;-69
2022/05/01 03:26:52;;;;;;;22.60;14.00;;;11.30;93.80;;;;;;5087580;28;20024;-69
2022/05/01 03:29:18;;;;;;;23.38;14.07;;;11.40;94.10;;;;;;5068203;28;20052;-69
2022/05/01 03:31:46;;;;;;;20.60;13.48;;;11.40;94.40;;;;;;5068427;28;20039;-69
2022/05/01 03:34:13;;;;;;;21.77;14.00;;;11.40;94.80;;;;;;5084421;28;20020;-69
2022/05/01 03:36:39;;;;;;;26.20;13.63;;;11.40;95.00;;;;;;5068091;28;20036;-69
2022/05/01 03:39:05;;;;;;;22.38;14.15;;;11.40;95.30;;;;;;5085443;28;20028;-73
2022/05/01 03:41:32;;;;;;;23.52;14.07;;;11.50;95.50;;;;;;5067568;28;20208;-70
2022/05/01 03:43:57;;;;;;;27.67;15.07;;;11.40;95.60;;;;;;5083888;28;20074;-69
2022/05/01 03:46:23;;;;;;;21.48;14.35;;;11.40;95.90;;;;;;5084900;28;20025;-70
2022/05/01 03:48:50;;;;;;;23.23;14.70;;;11.40;96.60;;;;;;5067287;28;20104;-70
2022/05/01 03:51:16;;;;;;;25.25;15.95;;;11.40;96.60;;;;;;5083901;28;20071;-70
2022/05/01 03:53:42;;;;;;;27.00;15.38;;;11.40;97.00;;;;;;5083319;28;20043;-70
2022/05/01 03:56:10;;;;;;;25.42;16.00;;;11.20;97.30;;;;;;5066106;28;20025;-70
2022/05/01 03:58:36;;;;;;;28.83;17.67;;;11.20;97.70;;;;;;5083392;28;20024;-70
2022/05/01 04:01:02;;;;;;;27.58;15.70;;;11.20;98.10;;;;;;5050343;28;20161;-70
2022/05/01 04:03:28;;;;;;;28.33;17.23;;;11.20;98.40;;;;;;5082849;28;20299;-70
2022/05/01 04:05:54;;;;;;;26.48;15.57;;;11.30;98.60;;;;;;5083638;28;20070;-70
2022/05/01 04:08:21;;;;;;;28.58;18.02;;;11.30;98.50;;;;;;5082863;28;20223;-69
2022/05/01 04:10:47;;;;;;;26.90;17.95;;;11.20;98.70;;;;;;5066364;28;20024;-70
2022/05/01 04:13:13;;;;;;;28.23;17.50;;;11.20;98.90;;;;;;5084355;28;20036;-70
2022/05/01 04:15:40;;;;;;;25.42;16.80;;;11.20;99.20;;;;;;5083240;28;20035;-71
2022/05/01 04:18:08;;;;;;;28.08;17.30;;;11.10;99.50;;;;;;5083327;28;20196;-70
2022/05/01 04:20:35;;;;;;;29.42;17.40;;;11.10;99.90;;;;;;5083215;28;20207;-70
2022/05/01 04:23:03;;;;;;;27.42;16.13;;;11.10;99.90;;;;;;5066370;28;20017;-70
2022/05/01 04:25:30;;;;;;;25.02;15.40;;;11.20;99.90;;;;;;5082646;28;20062;-70
2022/05/01 04:27:58;;;;;;;26.88;16.30;;;11.30;99.90;;;;;;5082814;28;20021;-70
2022/05/01 04:30:26;;;;;;;35.67;17.80;;;11.30;99.90;;;;;;5083966;28;20090;-70
2022/05/01 04:32:54;;;;;;;27.52;17.27;;;11.30;99.90;;;;;;5082888;28;20032;-71
2022/05/01 04:35:22;;;;;;;31.98;17.52;;;11.20;99.90;;;;;;5082703;28;20016;-70
2022/05/01 04:37:49;;;;;;;31.13;18.20;;;11.10;99.90;;;;;;5082693;28;20065;-69
2022/05/01 04:40:15;;;;;;;32.78;17.73;;;11.10;99.90;;;;;;5065838;28;20154;-69
2022/05/01 04:42:42;;;;;;;30.67;18.00;;;11.20;99.90;;;;;;5087755;28;20315;-70
2022/05/01 04:45:10;;;;;;;29.23;18.33;;;11.20;99.90;;;;;;5070144;28;20033;-70
2022/05/01 04:47:36;;;;;;;26.98;17.67;;;11.10;99.90;;;;;;5070263;28;20256;-70
2022/05/01 04:50:02;;;;;;;29.10;17.95;;;11.10;99.90;;;;;;5086258;28;20064;-69
2022/05/01 04:52:27;;;;;;;31.95;19.08;;;11.10;99.90;;;;;;5086745;28;20263;-69
2022/05/01 04:54:53;;;;;;;31.42;20.42;;;11.00;99.90;;;;;;5086493;28;20021;-68
2022/05/01 04:57:19;;;;;;;34.75;19.85;;;11.00;99.90;;;;;;5053365;28;20096;-70
2022/05/01 04:59:44;;;;;;;31.95;19.30;;;11.00;99.90;;;;;;5086562;28;20028;-70
2022/05/01 05:02:10;;;;;;;35.47;20.45;;;11.00;99.90;;;;;;5087431;28;20307;-70
2022/05/01 05:04:36;;;;;;;35.95;18.60;;;11.00;99.90;;;;;;5084796;28;20359;-70
2022/05/01 05:07:02;;;;;;;28.08;18.77;;;11.10;99.90;;;;;;5087130;28;20185;-70
2022/05/01 05:12:14;;;;;;;29.48;18.10;;;11.10;99.90;;;;;;5058637;28;20188;-71
2022/05/01 05:14:40;;;;;;;25.83;16.88;;;11.20;99.90;;;;;;5086363;28;20029;-69
2022/05/01 05:17:06;;;;;;;29.33;16.73;;;11.10;99.90;;;;;;5069705;28;20043;-69
2022/05/01 05:19:35;;;;;;;27.48;17.17;;;11.10;99.90;;;;;;5086155;28;20042;-70
2022/05/01 05:22:00;;;;;;;27.45;16.33;;;11.10;99.90;;;;;;5086679;28;20321;-69
2022/05/01 05:24:26;;;;;;;31.02;18.08;;;11.10;99.90;;;;;;5085812;28;20052;-69
2022/05/01 05:26:52;;;;;;;30.00;17.90;;;11.10;99.90;;;;;;5069352;28;20016;-69
2022/05/01 05:29:17;;;;;;;29.58;18.40;;;11.10;99.90;;;;;;5086139;28;20027;-71
2022/05/01 05:31:43;;;;;;;30.40;17.90;;;11.10;99.90;;;;;;5085717;28;20099;-69
2022/05/01 05:34:09;;;;;;;32.83;19.20;;;11.10;99.90;;;;;;5069309;28;20178;-69
2022/05/01 05:36:34;;;;;;;32.85;19.02;;;11.10;99.90;;;;;;5068465;28;20024;-69
2022/05/01 05:39:00;;;;;;;32.75;17.90;;;11.10;99.90;;;;;;5068937;28;20035;-69
2022/05/01 05:41:26;;;;;;;28.70;18.48;;;11.20;99.90;;;;;;5085798;28;20020;-70
2022/05/01 05:43:52;;;;;;;27.50;19.15;;;11.20;99.90;;;;;;5086925;28;20031;-70
2022/05/01 05:46:17;;;;;;;32.15;19.30;;;11.30;99.90;;;;;;5085721;28;20028;-70
2022/05/01 05:48:43;;;;;;;31.33;19.10;;;11.30;99.90;;;;;;5085549;28;20063;-69
2022/05/01 05:51:09;;;;;;;31.48;19.15;;;11.30;99.90;;;;;;5086217;28;20056;-68
2022/05/01 05:53:34;;;;;;;29.35;19.42;;;11.40;99.90;;;;;;5051734;28;20024;-69
2022/05/01 05:56:00;;;;;;;29.15;19.70;;;11.40;99.90;;;;;;5051946;28;20312;-69
2022/05/01 05:58:26;;;;;;;34.22;20.00;;;11.30;99.90;;;;;;5052042;28;20025;-70
2022/05/01 06:00:52;;;;;;;28.60;19.20;;;11.20;99.90;;;;;;5068507;28;20115;-70
2022/05/01 06:03:19;;;;;;;34.70;19.23;;;11.10;99.90;;;;;;5086636;28;20052;-69
2022/05/01 06:05:45;;;;;;;31.75;20.23;;;11.10;99.90;;;;;;5067078;28;20023;-70
2022/05/01 06:08:11;;;;;;;32.78;19.67;;;11.10;99.90;;;;;;5068644;28;20051;-69
2022/05/01 06:10:38;;;;;;;31.63;19.73;;;11.10;99.90;;;;;;5085024;28;20031;-70
2022/05/01 06:13:04;;;;;;;35.90;20.48;;;11.10;99.90;;;;;;5086527;28;20025;-70
2022/05/01 06:15:30;;;;;;;34.75;20.98;;;11.10;99.90;;;;;;5068637;28;20016;-69
2022/05/01 06:17:56;;;;;;;32.90;19.67;;;11.10;99.90;;;;;;5068770;28;20025;-69
2022/05/01 06:20:22;;;;;;;29.75;19.98;;;11.10;99.90;;;;;;5068084;28;20047;-68
2022/05/01 06:22:50;;;;;;;34.60;21.10;;;11.20;99.90;;;;;;5068404;28;20024;-70
2022/05/01 06:25:16;;;;;;;34.20;19.98;;;11.20;99.90;;;;;;5084596;28;20032;-70
2022/05/01 06:27:42;;;;;;;30.08;20.83;;;11.20;99.90;;;;;;5085910;28;20074;-70
2022/05/01 06:30:11;;;;;;;30.95;19.25;;;11.20;99.90;;;;;;5085787;28;20309;-70
2022/05/01 06:32:39;;;;;;;32.95;21.75;;;11.30;99.90;;;;;;5067776;28;20032;-69
2022/05/01 06:35:06;;;;;;;31.83;19.98;;;11.40;99.90;;;;;;5084489;28;20032;-69
2022/05/01 06:37:34;;;;;;;37.35;20.20;;;11.40;99.90;;;;;;5084731;28;20024;-70
2022/05/01 06:40:00;;;;;;;27.27;18.15;;;11.50;99.90;;;;;;5084594;28;20033;-70
2022/05/01 06:42:26;;;;;;;32.40;19.38;;;11.50;99.90;;;;;;5084281;28;20246;-70
2022/05/01 06:44:52;;;;;;;29.75;18.77;;;11.50;99.90;;;;;;5067939;28;20062;-71
2022/05/01 06:47:18;;;;;;;30.25;19.55;;;11.40;99.90;;;;;;5085609;28;20032;-71
2022/05/01 06:49:44;;;;;;;32.20;19.50;;;11.40;99.90;;;;;;5067385;28;20044;-70
2022/05/01 06:52:09;;;;;;;25.70;18.63;;;11.50;99.90;;;;;;5084309;28;20020;-71
2022/05/01 06:54:35;;;;;;;34.55;18.95;;;11.60;99.90;;;;;;5084921;28;20038;-70
2022/05/01 06:57:01;;;;;;;29.15;18.95;;;11.60;99.90;;;;;;5084717;28;20300;-69
2022/05/01 06:59:26;;;;;;;32.72;18.77;;;11.50;99.90;;;;;;5051297;28;20196;-69
2022/05/01 07:01:52;;;;;;;25.30;15.07;;;11.60;99.90;;;;;;5067319;28;20016;-70
2022/05/01 07:04:18;;;;;;;21.90;15.38;;;11.50;99.90;;;;;;5083300;28;20025;-69
2022/05/01 07:06:45;;;;;;;20.48;12.50;;;11.50;99.90;;;;;;5065997;28;20035;-70
2022/05/01 07:09:11;;;;;;;19.33;13.02;;;11.50;99.90;;;;;;5067677;28;20074;-70
2022/05/01 07:11:36;;;;;;;23.15;14.07;;;11.60;99.90;;;;;;5083897;28;20104;-70
2022/05/01 07:14:02;;;;;;;22.40;13.05;;;11.60;99.90;;;;;;5067467;28;20023;-71
2022/05/01 07:16:28;;;;;;;17.98;12.02;;;11.70;99.90;;;;;;5084225;28;20079;-71
2022/05/01 07:18:54;;;;;;;21.42;12.30;;;11.80;99.90;;;;;;5084066;28;20188;-71
2022/05/01 07:21:20;;;;;;;17.73;11.98;;;11.80;99.90;;;;;;5067267;28;20020;-71
2022/05/01 07:23:46;;;;;;;14.20;10.60;;;11.80;99.90;;;;;;5084557;28;20020;-71
2022/05/01 07:26:11;;;;;;;15.43;9.50;;;11.80;99.90;;;;;;5083726;28;20342;-71
2022/05/01 07:28:39;;;;;;;15.68;10.23;;;11.70;99.70;;;;;;5083947;28;20031;-71
2022/05/01 07:31:05;;;;;;;16.63;9.88;;;11.70;99.90;;;;;;5083460;28;20035;-71
2022/05/01 07:33:31;;;;;;;16.08;9.85;;;11.60;99.90;;;;;;5066962;28;20020;-72
2022/05/01 07:35:58;;;;;;;17.77;9.70;;;11.60;99.90;;;;;;5083347;28;20046;-71
2022/05/01 07:38:24;;;;;;;15.60;8.20;;;11.60;99.90;;;;;;5066884;28;20024;-71
2022/05/01 07:40:49;;;;;;;13.88;8.15;;;11.60;99.50;;;;;;5084640;28;20048;-72
2022/05/01 07:43:15;;;;;;;14.50;8.52;;;11.50;99.70;;;;;;5084495;28;20085;-71
2022/05/01 07:45:43;;;;;;;14.32;8.73;;;11.50;99.80;;;;;;5084889;28;20024;-72
2022/05/01 07:48:09;;;;;;;9.85;7.70;;;11.50;99.90;;;;;;5066847;28;20032;-72
2022/05/01 07:50:35;;;;;;;11.88;7.78;;;11.60;99.90;;;;;;5083141;28;20386;-71
2022/05/01 07:53:01;;;;;;;13.02;8.30;;;11.70;99.90;;;;;;5084452;28;20024;-70
2022/05/01 07:55:27;;;;;;;15.18;8.35;;;11.70;99.60;;;;;;5066490;28;20094;-71
2022/05/01 07:57:53;;;;;;;14.45;8.95;;;11.60;99.40;;;;;;5083405;28;20044;-71
2022/05/01 08:00:19;;;;;;;15.10;9.85;;;11.60;99.70;;;;;;5066762;28;20024;-71
2022/05/01 08:05:30;;;;;;;17.42;9.88;;;11.60;99.90;;;;;;5069746;28;20016;-71
2022/05/01 08:07:57;;;;;;;12.52;8.32;;;11.50;99.90;;;;;;5064954;28;20039;-70
2022/05/01 08:10:23;;;;;;;17.13;9.65;;;11.50;99.80;;;;;;5066491;28;20057;-72
2022/05/01 08:12:50;;;;;;;13.77;9.60;;;11.40;99.90;;;;;;5066492;28;20024;-69
2022/05/01 08:15:17;;;;;;;16.40;10.52;;;11.30;99.90;;;;;;5083225;28;20028;-70
2022/05/01 08:17:45;;;;;;;18.77;10.65;;;11.30;99.90;;;;;;5083205;28;20036;-70
2022/05/01 08:23:08;;;;;;;18.02;10.60;;;11.30;99.90;;;;;;5069297;28;20259;-70
2022/05/01 08:25:34;;;;;;;17.83;10.98;;;11.30;99.90;;;;;;5083671;28;20032;-70
2022/05/01 08:28:00;;;;;;;16.35;9.98;;;11.30;99.90;;;;;;5082740;28;20024;-70
2022/05/01 08:30:26;;;;;;;16.08;9.85;;;11.30;99.90;;;;;;5066040;28;20032;-71
2022/05/01 08:32:53;;;;;;;16.55;9.73;;;11.20;99.90;;;;;;5082446;28;20023;-70
2022/05/01 08:35:18;;;;;;;17.83;11.00;;;11.10;99.90;;;;;;5082686;28;20212;-72
2022/05/01 08:37:44;;;;;;;12.85;9.48;;;11.10;99.90;;;;;;5083031;28;20016;-71
2022/05/01 08:40:10;;;;;;;15.80;9.52;;;11.10;99.90;;;;;;5066203;28;20027;-70
2022/05/01 08:42:36;;;;;;;19.85;11.18;;;11.10;99.90;;;;;;5083209;28;20021;-70
2022/05/01 08:45:03;;;;;;;14.32;9.50;;;11.00;99.90;;;;;;5083735;28;20024;-70
2022/05/01 08:47:50;;;;;;;16.88;9.88;;;11.10;99.90;;;;;;5083895;28;20059;-71
2022/05/01 08:50:18;;;;;;;17.88;10.02;;;11.10;99.90;;;;;;5065297;28;20072;-70
2022/05/01 08:52:45;;;;;;;13.48;9.73;;;11.10;99.90;;;;;;5065814;28;20036;-71
2022/05/01 08:55:13;;;;;;;16.40;10.80;;;11.10;99.90;;;;;;5082001;28;20039;-70
2022/05/01 08:57:40;;;;;;;16.70;11.60;;;11.10;99.90;;;;;;5065932;28;20016;-72
2022/05/01 09:00:07;;;;;;;20.42;13.43;;;11.20;99.90;;;;;;5083353;28;20029;-70
2022/05/01 09:02:34;;;;;;;21.20;12.05;;;11.20;99.90;;;;;;5065721;28;20192;-72
2022/05/01 09:05:00;;;;;;;18.83;12.15;;;11.30;99.90;;;;;;5082195;28;20318;-69
2022/05/01 09:07:26;;;;;;;20.45;12.82;;;11.40;99.90;;;;;;5064333;28;20078;-70
2022/05/01 09:09:52;;;;;;;27.45;13.05;;;11.50;99.90;;;;;;5082457;28;20028;-70
2022/05/01 09:15:05;;;;;;;20.33;12.63;;;11.60;99.90;;;;;;5082432;28;20091;-71
2022/05/01 09:17:30;;;;;;;34.55;22.15;;;11.70;99.90;;;;;;5065656;28;20307;-70
2022/05/01 09:20:11;;;;;;;31.35;17.00;;;11.60;99.90;;;;;;5082339;28;20020;-71
2022/05/01 09:22:54;;;;;;;17.65;12.13;;;11.60;99.90;;;;;;5082256;28;20017;-71
2022/05/01 09:25:22;;;;;;;16.98;11.75;;;11.60;99.90;;;;;;5081945;28;20020;-71
2022/05/01 09:27:51;;;;;;;15.75;10.73;;;11.70;99.90;;;;;;5084800;28;20083;-69
2022/05/01 09:30:21;;;;;;;16.60;11.40;;;11.60;99.90;;;;;;5086156;28;20024;-69
2022/05/01 09:32:47;;;;;;;19.30;11.27;;;11.60;99.90;;;;;;5085686;28;20042;-69
2022/05/01 09:35:25;;;;;;;19.95;11.45;;;11.60;99.90;;;;;;5085943;28;20047;-70
2022/05/01 09:38:25;;;;;;;16.65;10.25;;;11.60;99.90;;;;;;5087324;28;20017;-70
2022/05/01 09:40:55;;;;;;;18.02;12.43;;;11.60;99.80;;;;;;5071811;28;20020;-72
2022/05/01 09:43:47;;;;;;;18.05;11.70;;;11.60;99.90;;;;;;5085732;28;20348;-71
2022/05/01 09:46:20;;;;;;;16.73;11.43;;;11.60;99.70;;;;;;5085893;28;20188;-70
2022/05/01 09:49:04;;;;;;;19.23;11.70;;;11.60;99.70;;;;;;5086917;28;20078;-72
2022/05/01 09:51:34;;;;;;;15.73;10.20;;;11.80;99.90;;;;;;5068812;28;20052;-71
2022/05/01 09:54:02;;;;;;;19.95;11.50;;;11.90;99.40;;;;;;5085304;28;20028;-71
2022/05/01 09:56:28;;;;;;;16.15;10.57;;;12.00;99.40;;;;;;5069182;28;20024;-70
2022/05/01 09:59:02;;;;;;;17.92;11.98;;;12.00;98.10;;;;;;5086936;28;20021;-71
2022/05/01 10:01:29;;;;;;;18.52;11.50;;;12.10;99.00;;;;;;5085911;28;20027;-71
2022/05/01 10:04:00;;;;;;;18.00;11.65;;;12.10;99.00;;;;;;5086632;28;20031;-70
2022/05/01 10:06:28;;;;;;;17.77;11.80;;;12.20;98.80;;;;;;5069209;28;20025;-71
2022/05/01 10:08:55;;;;;;;16.90;12.35;;;12.30;98.80;;;;;;5084918;28;20240;-71
2022/05/01 10:11:24;;;;;;;21.50;14.95;;;12.30;98.80;;;;;;5068964;28;20039;-69
2022/05/01 10:13:50;;;;;;;22.90;14.60;;;12.40;98.90;;;;;;5068596;28;20020;-70
2022/05/01 10:16:16;;;;;;;20.02;14.48;;;12.40;98.60;;;;;;5068423;28;20017;-72
2022/05/01 10:18:44;;;;;;;20.23;14.48;;;12.40;98.30;;;;;;5085391;28;20036;-70
2022/05/01 10:21:11;;;;;;;22.10;12.50;;;12.50;98.10;;;;;;5052092;28;20046;-70
2022/05/01 10:23:37;;;;;;;18.58;13.73;;;12.40;97.90;;;;;;5068273;28;20226;-69
2022/05/01 10:26:16;;;;;;;21.35;13.07;;;12.40;98.60;;;;;;5068053;28;20025;-71
2022/05/01 10:29:21;;;;;;;20.38;12.85;;;12.40;98.20;;;;;;5085246;28;20036;-71
2022/05/01 10:32:27;;;;;;;21.30;13.02;;;12.40;98.70;;;;;;5085279;28;20039;-72
2022/05/01 10:35:33;;;;;;;19.98;12.27;;;12.50;98.40;;;;;;5070443;28;20052;-71
2022/05/01 10:38:27;;;;;;;19.75;13.55;;;12.60;97.40;;;;;;5069859;28;20047;-72
2022/05/01 10:40:55;;;;;;;22.83;12.93;;;12.60;98.30;;;;;;5072268;28;20020;-71
2022/05/01 10:43:29;;;;;;;18.63;12.38;;;12.50;97.70;;;;;;5085862;28;20020;-71
2022/05/01 10:45:59;;;;;;;20.27;12.40;;;12.40;98.00;;;;;;5067541;28;20104;-71
2022/05/01 10:48:41;;;;;;;16.02;11.20;;;12.40;97.50;;;;;;5084636;28;20040;-72
2022/05/01 10:51:48;;;;;;;18.30;11.07;;;12.40;97.30;;;;;;5085564;28;20260;-71
2022/05/01 10:54:32;;;;;;;17.25;11.48;;;12.40;97.30;;;;;;5073684;28;20016;-70
2022/05/01 10:57:07;;;;;;;18.80;12.75;;;12.40;97.40;;;;;;5084117;28;20048;-71
2022/05/01 10:59:39;;;;;;;20.45;14.02;;;12.40;97.40;;;;;;5084747;28;20207;-71
2022/05/01 11:02:20;;;;;;;18.13;13.27;;;12.50;97.00;;;;;;5085333;28;20334;-71
2022/05/01 11:04:46;;;;;;;17.58;13.15;;;12.50;96.90;;;;;;5067906;28;20028;-72
2022/05/01 11:07:15;;;;;;;17.58;12.07;;;12.50;97.70;;;;;;5067608;28;20020;-71
2022/05/01 11:09:45;;;;;;;15.95;12.13;;;12.50;97.20;;;;;;5083518;28;20038;-72
2022/05/01 11:12:13;;;;;;;20.45;12.80;;;12.40;96.70;;;;;;5084281;28;20091;-70
2022/05/01 11:14:52;;;;;;;19.23;13.27;;;12.30;96.70;;;;;;5067904;28;20024;-73
2022/05/01 11:17:54;;;;;;;16.58;12.23;;;12.30;97.20;;;;;;5067548;28;20016;-72
2022/05/01 11:20:25;;;;;;;;;;;12.20;96.80;;;;;;5084764;28;20078;-71
2022/05/01 11:22:51;;;;;;;27.75;18.08;;;12.30;97.90;;;;;;5083637;28;19907;-71
2022/05/01 11:25:30;;;;;;;20.40;13.70;;;12.30;97.90;;;;;;5067015;28;20028;-72
2022/05/01 11:27:56;;;;;;;19.75;12.85;;;12.40;97.60;;;;;;5083503;28;20025;-71
2022/05/01 11:30:38;;;;;;;22.33;14.52;;;12.30;97.60;;;;;;5067133;28;20069;-70
2022/05/01 11:33:08;;;;;;;26.15;15.70;;;12.20;98.20;;;;;;5067070;28;20016;-72
2022/05/01 11:36:06;;;;;;;26.08;15.80;;;12.10;98.00;;;;;;5083587;28;20021;-70
2022/05/01 11:38:50;;;;;;;22.85;15.00;;;12.20;98.00;;;;;;5071173;28;20020;-70
2022/05/01 11:41:39;;;;;;;24.70;16.65;;;12.20;98.00;;;;;;5067226;28;20031;-70
2022/05/01 11:44:25;;;;;;;22.60;14.80;;;12.30;98.30;;;;;;5070246;28;20062;-71
2022/05/01 11:46:52;;;;;;;25.20;14.65;;;12.30;97.90;;;;;;5069352;28;20087;-71
2022/05/01 11:49:18;;;;;;;22.35;15.20;;;12.30;98.40;;;;;;5083221;28;20316;-70
2022/05/01 11:51:45;;;;;;;27.42;15.32;;;12.20;98.50;;;;;;5066797;28;20086;-72
2022/05/01 11:54:11;;;;;;;25.13;16.17;;;12.10;98.40;;;;;;5084194;28;20028;-70
2022/05/01 12:02:25;;;;;;;24.63;16.38;;;11.90;98.50;;;;;;5008692;28;20054;-69
2022/05/01 12:04:51;;;;;;;22.85;16.45;;;11.90;99.50;;;;;;5040102;28;20053;-72
2022/05/01 12:07:18;;;;;;;25.58;15.90;;;11.80;99.70;;;;;;5023586;28;20321;-71
2022/05/01 12:09:46;;;;;;;26.98;18.27;;;11.80;99.90;;;;;;4990013;28;20190;-69
2022/05/01 12:12:16;;;;;;;29.92;18.52;;;11.80;99.90;;;;;;5024574;28;20089;-71
2022/05/01 12:14:43;;;;;;;26.60;15.23;;;11.80;99.90;;;;;;5023665;28;20190;-71
2022/05/01 12:17:10;;;;;;;23.65;16.90;;;11.80;99.90;;;;;;5007076;28;20026;-71
2022/05/01 12:19:39;;;;;;;27.70;16.95;;;11.70;99.90;;;;;;4991062;28;20048;-71
2022/05/01 12:22:05;;;;;;;25.10;17.25;;;11.80;99.90;;;;;;5022960;28;20026;-71
2022/05/01 12:24:32;;;;;;;28.77;18.00;;;11.70;99.90;;;;;;4995416;28;20073;-71
2022/05/01 12:26:59;;;;;;;28.40;17.88;;;11.60;99.90;;;;;;4987242;28;20026;-70
2022/05/01 12:29:25;;;;;;;32.50;20.63;;;11.60;99.90;;;;;;5003543;28;20027;-71
2022/05/01 12:32:10;;;;;;;33.50;22.02;;;11.80;99.90;;;;;;5003806;28;20030;-71
2022/05/01 12:34:54;;;;;;;29.85;20.23;;;11.90;99.90;;;;;;4989811;28;20018;-72
2022/05/01 12:37:21;;;;;;;31.50;19.67;;;11.90;99.90;;;;;;5003674;28;20062;-71
2022/05/01 12:40:10;;;;;;;30.20;19.55;;;12.00;99.90;;;;;;5004614;28;20027;-70
2022/05/01 12:45:38;;;;;;;32.20;21.80;;;12.00;99.90;;;;;;5004120;28;20019;-72
2022/05/01 12:48:05;;;;;;;33.03;21.40;;;12.10;99.90;;;;;;5004495;28;20030;-70
2022/05/01 12:50:32;;;;;;;43.88;27.42;;;12.20;99.90;;;;;;5004328;28;20069;-71
2022/05/01 12:53:01;;;;;;;36.50;24.70;;;12.30;99.90;;;;;;4987493;28;20027;-71
2022/05/01 12:55:32;;;;;;;29.98;19.38;;;12.50;99.90;;;;;;4971270;28;20324;-71
2022/05/01 12:57:59;;;;;;;31.83;20.20;;;12.50;99.90;;;;;;5019758;28;20276;-72
2022/05/01 13:00:42;;;;;;;31.23;20.10;;;12.50;99.90;;;;;;5003234;28;20037;-72
2022/05/01 13:03:33;;;;;;;33.83;20.42;;;12.60;99.90;;;;;;5006135;28;20029;-72
2022/05/01 13:06:05;;;;;;;25.80;17.20;;;12.70;99.90;;;;;;5007759;28;20022;-71
2022/05/01 13:08:34;;;;;;;33.80;18.67;;;12.60;99.90;;;;;;5007908;28;20050;-71